sensor_id;sensor_type;location;lat;lon;timestamp;P1;durP1;ratioP1;P2;durP2;ratioP2
37763;SDS011;23602;51.084;7.090;2022-10-16T00:00:43;7.60;;;2.70;;
37763;SDS011;23602;51.084;7.090;2022-10-16T00:03:09;7.88;;;2.47;;
37763;SDS011;23602;51.084;7.090;2022-10-16T00:05:43;20.48;;;3.30;;
37763;SDS011;23602;51.084;7.090;2022-10-16T00:08:10;5.78;;;3.03;;
37763;SDS011;23602;51.084;7.090;2022-10-16T00:10:36;8.23;;;3.17;;
37763;SDS011;23602;51.084;7.090;2022-10-16T00:13:03;11.60;;;3.10;;
37763;SDS011;23602;51.084;7.090;2022-10-16T00:15:29;11.68;;;3.83;;
37763;SDS011;23602;51.084;7.090;2022-10-16T00:17:55;18.00;;;3.55;;
37763;SDS011;23602;51.084;7.090;2022-10-16T00:20:21;11.98;;;3.20;;
37763;SDS011;23602;51.084;7.090;2022-10-16T00:22:47;11.73;;;3.72;;
37763;SDS011;23602;51.084;7.090;2022-10-16T00:25:12;12.35;;;3.80;;
37763;SDS011;23602;51.084;7.090;2022-10-16T00:27:41;8.68;;;3.92;;
37763;SDS011;23602;51.084;7.090;2022-10-16T00:30:07;7.13;;;3.30;;
37763;SDS011;23602;51.084;7.090;2022-10-16T00:32:33;14.45;;;4.18;;
37763;SDS011;23602;51.084;7.090;2022-10-16T00:34:59;13.77;;;3.95;;
37763;SDS011;23602;51.084;7.090;2022-10-16T00:37:29;10.40;;;4.03;;
37763;SDS011;23602;51.084;7.090;2022-10-16T00:39:54;7.50;;;3.95;;
37763;SDS011;23602;51.084;7.090;2022-10-16T00:42:20;12.35;;;3.92;;
37763;SDS011;23602;51.084;7.090;2022-10-16T00:44:54;12.10;;;5.03;;
37763;SDS011;23602;51.084;7.090;2022-10-16T00:47:26;11.48;;;4.30;;
37763;SDS011;23602;51.084;7.090;2022-10-16T00:50:00;11.68;;;3.88;;
37763;SDS011;23602;51.084;7.090;2022-10-16T00:52:31;14.55;;;3.67;;
37763;SDS011;23602;51.084;7.090;2022-10-16T00:54:57;5.63;;;3.80;;
37763;SDS011;23602;51.084;7.090;2022-10-16T00:57:23;11.98;;;4.50;;
37763;SDS011;23602;51.084;7.090;2022-10-16T00:59:50;14.40;;;4.25;;
37763;SDS011;23602;51.084;7.090;2022-10-16T01:02:17;7.68;;;3.72;;
37763;SDS011;23602;51.084;7.090;2022-10-16T01:04:47;11.95;;;4.82;;
37763;SDS011;23602;51.084;7.090;2022-10-16T01:12:45;12.15;;;4.00;;
37763;SDS011;23602;51.084;7.090;2022-10-16T01:15:27;9.88;;;3.35;;
37763;SDS011;23602;51.084;7.090;2022-10-16T01:20:27;10.88;;;4.03;;
37763;SDS011;23602;51.084;7.090;2022-10-16T01:25:29;9.80;;;3.95;;
37763;SDS011;23602;51.084;7.090;2022-10-16T01:28:03;14.20;;;3.40;;
37763;SDS011;23602;51.084;7.090;2022-10-16T01:30:31;9.10;;;3.60;;
37763;SDS011;23602;51.084;7.090;2022-10-16T01:33:14;22.35;;;4.30;;
37763;SDS011;23602;51.084;7.090;2022-10-16T01:35:46;14.07;;;3.85;;
37763;SDS011;23602;51.084;7.090;2022-10-16T01:38:34;12.40;;;3.88;;
37763;SDS011;23602;51.084;7.090;2022-10-16T01:41:16;13.27;;;3.58;;
37763;SDS011;23602;51.084;7.090;2022-10-16T01:43:49;14.10;;;3.97;;
37763;SDS011;23602;51.084;7.090;2022-10-16T01:46:21;28.90;;;5.53;;
37763;SDS011;23602;51.084;7.090;2022-10-16T01:48:48;7.57;;;3.75;;
37763;SDS011;23602;51.084;7.090;2022-10-16T01:51:16;6.72;;;3.78;;
37763;SDS011;23602;51.084;7.090;2022-10-16T01:53:46;12.00;;;3.33;;
37763;SDS011;23602;51.084;7.090;2022-10-16T01:56:14;15.38;;;5.50;;
37763;SDS011;23602;51.084;7.090;2022-10-16T01:58:44;18.55;;;3.67;;
37763;SDS011;23602;51.084;7.090;2022-10-16T02:01:15;14.70;;;4.13;;
37763;SDS011;23602;51.084;7.090;2022-10-16T02:03:42;9.23;;;3.25;;
37763;SDS011;23602;51.084;7.090;2022-10-16T02:06:11;10.32;;;3.58;;
37763;SDS011;23602;51.084;7.090;2022-10-16T02:08:37;14.80;;;4.20;;
37763;SDS011;23602;51.084;7.090;2022-10-16T02:11:04;15.40;;;3.70;;
37763;SDS011;23602;51.084;7.090;2022-10-16T02:16:33;9.75;;;3.25;;
37763;SDS011;23602;51.084;7.090;2022-10-16T02:19:01;16.15;;;3.70;;
37763;SDS011;23602;51.084;7.090;2022-10-16T02:27:49;11.57;;;3.40;;
37763;SDS011;23602;51.084;7.090;2022-10-16T02:32:53;9.32;;;2.90;;
37763;SDS011;23602;51.084;7.090;2022-10-16T02:35:19;10.68;;;3.03;;
37763;SDS011;23602;51.084;7.090;2022-10-16T02:37:50;6.35;;;3.10;;
37763;SDS011;23602;51.084;7.090;2022-10-16T02:40:17;5.97;;;2.70;;
37763;SDS011;23602;51.084;7.090;2022-10-16T02:42:44;8.30;;;2.90;;
37763;SDS011;23602;51.084;7.090;2022-10-16T02:45:10;12.88;;;3.42;;
37763;SDS011;23602;51.084;7.090;2022-10-16T02:47:36;4.88;;;2.90;;
37763;SDS011;23602;51.084;7.090;2022-10-16T02:50:01;8.85;;;3.20;;
37763;SDS011;23602;51.084;7.090;2022-10-16T02:52:27;6.82;;;2.70;;
37763;SDS011;23602;51.084;7.090;2022-10-16T02:57:20;4.07;;;2.40;;
37763;SDS011;23602;51.084;7.090;2022-10-16T02:59:46;5.13;;;2.40;;
37763;SDS011;23602;51.084;7.090;2022-10-16T03:02:11;6.70;;;3.25;;
37763;SDS011;23602;51.084;7.090;2022-10-16T03:04:37;10.18;;;2.67;;
37763;SDS011;23602;51.084;7.090;2022-10-16T03:07:03;3.55;;;2.38;;
37763;SDS011;23602;51.084;7.090;2022-10-16T03:09:28;9.70;;;3.20;;
37763;SDS011;23602;51.084;7.090;2022-10-16T03:11:53;19.00;;;3.13;;
37763;SDS011;23602;51.084;7.090;2022-10-16T03:14:19;6.38;;;3.05;;
37763;SDS011;23602;51.084;7.090;2022-10-16T03:16:44;5.07;;;1.90;;
37763;SDS011;23602;51.084;7.090;2022-10-16T03:19:10;6.55;;;2.30;;
37763;SDS011;23602;51.084;7.090;2022-10-16T03:21:35;12.85;;;2.20;;
37763;SDS011;23602;51.084;7.090;2022-10-16T03:24:01;3.70;;;1.80;;
37763;SDS011;23602;51.084;7.090;2022-10-16T03:26:26;9.25;;;2.10;;
37763;SDS011;23602;51.084;7.090;2022-10-16T03:28:52;8.35;;;2.05;;
37763;SDS011;23602;51.084;7.090;2022-10-16T03:31:17;4.88;;;2.08;;
37763;SDS011;23602;51.084;7.090;2022-10-16T03:33:43;4.57;;;1.60;;
37763;SDS011;23602;51.084;7.090;2022-10-16T03:36:08;6.32;;;2.08;;
37763;SDS011;23602;51.084;7.090;2022-10-16T03:38:34;11.60;;;3.03;;
37763;SDS011;23602;51.084;7.090;2022-10-16T03:40:59;4.50;;;2.08;;
37763;SDS011;23602;51.084;7.090;2022-10-16T03:43:27;6.15;;;2.10;;
37763;SDS011;23602;51.084;7.090;2022-10-16T03:45:53;7.43;;;2.78;;
37763;SDS011;23602;51.084;7.090;2022-10-16T03:48:20;3.25;;;2.03;;
37763;SDS011;23602;51.084;7.090;2022-10-16T03:50:46;4.95;;;1.90;;
37763;SDS011;23602;51.084;7.090;2022-10-16T03:53:13;2.75;;;1.80;;
37763;SDS011;23602;51.084;7.090;2022-10-16T03:55:41;7.32;;;2.28;;
37763;SDS011;23602;51.084;7.090;2022-10-16T03:58:07;5.32;;;2.03;;
37763;SDS011;23602;51.084;7.090;2022-10-16T04:00:32;5.50;;;2.30;;
37763;SDS011;23602;51.084;7.090;2022-10-16T04:02:59;6.93;;;2.27;;
37763;SDS011;23602;51.084;7.090;2022-10-16T04:05:24;7.43;;;2.20;;
37763;SDS011;23602;51.084;7.090;2022-10-16T04:07:50;7.00;;;2.80;;
37763;SDS011;23602;51.084;7.090;2022-10-16T04:10:15;7.88;;;2.35;;
37763;SDS011;23602;51.084;7.090;2022-10-16T04:12:41;7.75;;;2.40;;
37763;SDS011;23602;51.084;7.090;2022-10-16T04:15:06;8.00;;;2.05;;
37763;SDS011;23602;51.084;7.090;2022-10-16T04:17:32;6.15;;;2.20;;
37763;SDS011;23602;51.084;7.090;2022-10-16T04:19:57;10.95;;;2.40;;
37763;SDS011;23602;51.084;7.090;2022-10-16T04:22:23;4.50;;;2.42;;
37763;SDS011;23602;51.084;7.090;2022-10-16T04:24:50;7.32;;;2.47;;
37763;SDS011;23602;51.084;7.090;2022-10-16T04:27:16;6.43;;;2.60;;
37763;SDS011;23602;51.084;7.090;2022-10-16T04:29:44;4.82;;;2.13;;
37763;SDS011;23602;51.084;7.090;2022-10-16T04:32:09;5.85;;;2.25;;
37763;SDS011;23602;51.084;7.090;2022-10-16T04:34:35;5.60;;;2.28;;
37763;SDS011;23602;51.084;7.090;2022-10-16T04:37:00;10.70;;;2.60;;
37763;SDS011;23602;51.084;7.090;2022-10-16T04:39:25;2.55;;;2.20;;
37763;SDS011;23602;51.084;7.090;2022-10-16T04:41:51;6.22;;;2.30;;
37763;SDS011;23602;51.084;7.090;2022-10-16T04:44:27;7.97;;;2.38;;
37763;SDS011;23602;51.084;7.090;2022-10-16T04:46:52;7.32;;;2.05;;
37763;SDS011;23602;51.084;7.090;2022-10-16T04:49:17;3.05;;;2.17;;
37763;SDS011;23602;51.084;7.090;2022-10-16T04:51:43;7.30;;;1.90;;
37763;SDS011;23602;51.084;7.090;2022-10-16T04:54:08;15.32;;;2.40;;
37763;SDS011;23602;51.084;7.090;2022-10-16T04:56:34;3.88;;;2.00;;
37763;SDS011;23602;51.084;7.090;2022-10-16T04:59:05;2.83;;;2.13;;
37763;SDS011;23602;51.084;7.090;2022-10-16T05:01:30;3.70;;;2.20;;
37763;SDS011;23602;51.084;7.090;2022-10-16T05:03:58;6.43;;;2.70;;
37763;SDS011;23602;51.084;7.090;2022-10-16T05:08:49;5.90;;;2.50;;
37763;SDS011;23602;51.084;7.090;2022-10-16T05:11:14;6.55;;;2.60;;
37763;SDS011;23602;51.084;7.090;2022-10-16T05:13:39;7.20;;;2.70;;
37763;SDS011;23602;51.084;7.090;2022-10-16T05:16:05;5.22;;;2.10;;
37763;SDS011;23602;51.084;7.090;2022-10-16T05:18:31;4.47;;;2.42;;
37763;SDS011;23602;51.084;7.090;2022-10-16T05:20:56;4.50;;;1.90;;
37763;SDS011;23602;51.084;7.090;2022-10-16T05:23:22;4.15;;;2.00;;
37763;SDS011;23602;51.084;7.090;2022-10-16T05:25:54;4.35;;;2.45;;
37763;SDS011;23602;51.084;7.090;2022-10-16T05:28:23;5.28;;;2.92;;
37763;SDS011;23602;51.084;7.090;2022-10-16T05:30:52;3.13;;;2.17;;
37763;SDS011;23602;51.084;7.090;2022-10-16T05:33:19;3.33;;;2.20;;
37763;SDS011;23602;51.084;7.090;2022-10-16T05:35:46;8.07;;;2.55;;
37763;SDS011;23602;51.084;7.090;2022-10-16T05:38:11;6.88;;;2.50;;
37763;SDS011;23602;51.084;7.090;2022-10-16T05:40:37;6.15;;;2.60;;
37763;SDS011;23602;51.084;7.090;2022-10-16T05:43:02;6.18;;;2.17;;
37763;SDS011;23602;51.084;7.090;2022-10-16T05:45:28;9.55;;;2.72;;
37763;SDS011;23602;51.084;7.090;2022-10-16T05:47:53;8.52;;;2.60;;
37763;SDS011;23602;51.084;7.090;2022-10-16T05:50:19;3.58;;;2.33;;
37763;SDS011;23602;51.084;7.090;2022-10-16T05:52:45;2.97;;;2.67;;
37763;SDS011;23602;51.084;7.090;2022-10-16T05:55:11;7.53;;;2.75;;
37763;SDS011;23602;51.084;7.090;2022-10-16T05:57:36;8.45;;;2.30;;
37763;SDS011;23602;51.084;7.090;2022-10-16T06:00:05;5.72;;;2.30;;
37763;SDS011;23602;51.084;7.090;2022-10-16T06:02:31;8.43;;;2.42;;
37763;SDS011;23602;51.084;7.090;2022-10-16T06:04:56;8.48;;;2.60;;
37763;SDS011;23602;51.084;7.090;2022-10-16T06:07:22;4.63;;;2.15;;
37763;SDS011;23602;51.084;7.090;2022-10-16T06:09:51;6.22;;;2.60;;
37763;SDS011;23602;51.084;7.090;2022-10-16T06:12:17;6.65;;;2.10;;
37763;SDS011;23602;51.084;7.090;2022-10-16T06:14:43;9.13;;;2.50;;
37763;SDS011;23602;51.084;7.090;2022-10-16T06:17:10;7.50;;;2.53;;
37763;SDS011;23602;51.084;7.090;2022-10-16T06:19:36;3.85;;;2.53;;
37763;SDS011;23602;51.084;7.090;2022-10-16T06:22:01;5.90;;;2.97;;
37763;SDS011;23602;51.084;7.090;2022-10-16T06:24:29;4.93;;;2.40;;
37763;SDS011;23602;51.084;7.090;2022-10-16T06:26:54;8.80;;;2.90;;
37763;SDS011;23602;51.084;7.090;2022-10-16T06:29:20;5.72;;;2.78;;
37763;SDS011;23602;51.084;7.090;2022-10-16T06:31:45;6.00;;;2.78;;
37763;SDS011;23602;51.084;7.090;2022-10-16T06:34:11;5.43;;;2.60;;
37763;SDS011;23602;51.084;7.090;2022-10-16T06:36:44;4.00;;;2.83;;
37763;SDS011;23602;51.084;7.090;2022-10-16T06:39:09;6.15;;;2.80;;
37763;SDS011;23602;51.084;7.090;2022-10-16T06:41:37;5.32;;;2.58;;
37763;SDS011;23602;51.084;7.090;2022-10-16T06:44:06;4.55;;;3.55;;
37763;SDS011;23602;51.084;7.090;2022-10-16T06:46:33;12.02;;;3.08;;
37763;SDS011;23602;51.084;7.090;2022-10-16T06:48:59;10.00;;;2.67;;
37763;SDS011;23602;51.084;7.090;2022-10-16T06:51:24;4.93;;;3.05;;
37763;SDS011;23602;51.084;7.090;2022-10-16T06:53:51;5.85;;;2.55;;
37763;SDS011;23602;51.084;7.090;2022-10-16T06:58:48;7.32;;;2.88;;
37763;SDS011;23602;51.084;7.090;2022-10-16T07:01:16;3.97;;;2.80;;
37763;SDS011;23602;51.084;7.090;2022-10-16T07:03:43;4.28;;;2.97;;
37763;SDS011;23602;51.084;7.090;2022-10-16T07:06:10;4.35;;;2.53;;
37763;SDS011;23602;51.084;7.090;2022-10-16T07:08:40;5.85;;;2.67;;
37763;SDS011;23602;51.084;7.090;2022-10-16T07:11:07;8.55;;;2.60;;
37763;SDS011;23602;51.084;7.090;2022-10-16T07:13:36;4.07;;;2.40;;
37763;SDS011;23602;51.084;7.090;2022-10-16T07:16:25;4.30;;;2.45;;
37763;SDS011;23602;51.084;7.090;2022-10-16T07:18:49;13.20;;;3.78;;
37763;SDS011;23602;51.084;7.090;2022-10-16T07:21:25;6.45;;;2.35;;
37763;SDS011;23602;51.084;7.090;2022-10-16T07:23:54;7.70;;;3.20;;
37763;SDS011;23602;51.084;7.090;2022-10-16T07:26:24;4.20;;;2.10;;
37763;SDS011;23602;51.084;7.090;2022-10-16T07:28:53;8.75;;;2.63;;
37763;SDS011;23602;51.084;7.090;2022-10-16T07:31:19;3.53;;;2.13;;
37763;SDS011;23602;51.084;7.090;2022-10-16T07:33:46;5.88;;;2.05;;
37763;SDS011;23602;51.084;7.090;2022-10-16T07:36:13;4.18;;;2.00;;
37763;SDS011;23602;51.084;7.090;2022-10-16T07:38:40;6.57;;;2.30;;
37763;SDS011;23602;51.084;7.090;2022-10-16T07:41:08;3.53;;;1.77;;
37763;SDS011;23602;51.084;7.090;2022-10-16T07:43:35;4.93;;;2.17;;
37763;SDS011;23602;51.084;7.090;2022-10-16T07:46:01;6.88;;;2.05;;
37763;SDS011;23602;51.084;7.090;2022-10-16T07:48:27;2.30;;;1.80;;
37763;SDS011;23602;51.084;7.090;2022-10-16T07:51:01;5.47;;;2.30;;
37763;SDS011;23602;51.084;7.090;2022-10-16T07:53:28;7.03;;;2.15;;
37763;SDS011;23602;51.084;7.090;2022-10-16T07:56:01;8.52;;;2.53;;
37763;SDS011;23602;51.084;7.090;2022-10-16T07:58:29;4.45;;;1.95;;
37763;SDS011;23602;51.084;7.090;2022-10-16T08:00:55;6.05;;;2.45;;
37763;SDS011;23602;51.084;7.090;2022-10-16T08:03:22;3.55;;;2.00;;
37763;SDS011;23602;51.084;7.090;2022-10-16T08:05:48;6.40;;;2.55;;
37763;SDS011;23602;51.084;7.090;2022-10-16T08:08:15;6.13;;;2.10;;
37763;SDS011;23602;51.084;7.090;2022-10-16T08:10:42;2.63;;;2.28;;
37763;SDS011;23602;51.084;7.090;2022-10-16T08:13:07;8.52;;;2.47;;
37763;SDS011;23602;51.084;7.090;2022-10-16T08:15:33;5.45;;;2.42;;
37763;SDS011;23602;51.084;7.090;2022-10-16T08:18:02;5.10;;;2.20;;
37763;SDS011;23602;51.084;7.090;2022-10-16T08:20:29;7.10;;;2.35;;
37763;SDS011;23602;51.084;7.090;2022-10-16T08:22:56;5.83;;;2.50;;
37763;SDS011;23602;51.084;7.090;2022-10-16T08:25:22;8.75;;;3.10;;
37763;SDS011;23602;51.084;7.090;2022-10-16T08:27:49;4.07;;;2.50;;
37763;SDS011;23602;51.084;7.090;2022-10-16T08:30:15;4.38;;;3.00;;
37763;SDS011;23602;51.084;7.090;2022-10-16T08:32:42;5.45;;;2.47;;
37763;SDS011;23602;51.084;7.090;2022-10-16T08:35:13;5.72;;;2.40;;
37763;SDS011;23602;51.084;7.090;2022-10-16T08:37:42;3.42;;;2.03;;
37763;SDS011;23602;51.084;7.090;2022-10-16T08:40:18;3.83;;;2.33;;
37763;SDS011;23602;51.084;7.090;2022-10-16T08:43:06;3.95;;;2.15;;
37763;SDS011;23602;51.084;7.090;2022-10-16T08:46:12;6.28;;;2.22;;
37763;SDS011;23602;51.084;7.090;2022-10-16T08:48:59;3.90;;;2.25;;
37763;SDS011;23602;51.084;7.090;2022-10-16T08:51:32;8.87;;;2.30;;
37763;SDS011;23602;51.084;7.090;2022-10-16T08:57:17;4.78;;;2.10;;
37763;SDS011;23602;51.084;7.090;2022-10-16T08:59:46;5.30;;;2.33;;
37763;SDS011;23602;51.084;7.090;2022-10-16T09:02:20;4.18;;;2.20;;
37763;SDS011;23602;51.084;7.090;2022-10-16T09:10:52;7.50;;;2.03;;
37763;SDS011;23602;51.084;7.090;2022-10-16T09:14:36;2.38;;;1.70;;
37763;SDS011;23602;51.084;7.090;2022-10-16T09:17:04;5.80;;;1.83;;
37763;SDS011;23602;51.084;7.090;2022-10-16T09:19:41;4.25;;;2.22;;
37763;SDS011;23602;51.084;7.090;2022-10-16T09:22:15;4.18;;;1.75;;
37763;SDS011;23602;51.084;7.090;2022-10-16T09:24:42;7.05;;;1.88;;
37763;SDS011;23602;51.084;7.090;2022-10-16T09:27:10;3.05;;;2.15;;
37763;SDS011;23602;51.084;7.090;2022-10-16T09:29:37;8.05;;;1.60;;
37763;SDS011;23602;51.084;7.090;2022-10-16T09:32:11;5.78;;;2.42;;
37763;SDS011;23602;51.084;7.090;2022-10-16T09:34:42;10.73;;;1.75;;
37763;SDS011;23602;51.084;7.090;2022-10-16T09:37:17;2.47;;;1.30;;
37763;SDS011;23602;51.084;7.090;2022-10-16T09:39:49;3.08;;;1.50;;
37763;SDS011;23602;51.084;7.090;2022-10-16T09:42:18;3.75;;;1.30;;
37763;SDS011;23602;51.084;7.090;2022-10-16T09:44:51;11.98;;;2.15;;
37763;SDS011;23602;51.084;7.090;2022-10-16T09:47:31;3.72;;;1.27;;
37763;SDS011;23602;51.084;7.090;2022-10-16T09:50:27;3.63;;;1.10;;
37763;SDS011;23602;51.084;7.090;2022-10-16T09:53:03;3.25;;;1.27;;
37763;SDS011;23602;51.084;7.090;2022-10-16T09:55:32;10.90;;;1.45;;
37763;SDS011;23602;51.084;7.090;2022-10-16T09:57:57;4.55;;;1.20;;
37763;SDS011;23602;51.084;7.090;2022-10-16T10:00:24;3.90;;;1.17;;
37763;SDS011;23602;51.084;7.090;2022-10-16T10:02:49;3.88;;;1.25;;
37763;SDS011;23602;51.084;7.090;2022-10-16T10:05:20;3.20;;;1.40;;
37763;SDS011;23602;51.084;7.090;2022-10-16T10:07:57;3.58;;;1.30;;
37763;SDS011;23602;51.084;7.090;2022-10-16T10:12:54;10.10;;;1.33;;
37763;SDS011;23602;51.084;7.090;2022-10-16T10:15:23;5.80;;;1.20;;
37763;SDS011;23602;51.084;7.090;2022-10-16T10:17:55;5.75;;;1.02;;
37763;SDS011;23602;51.084;7.090;2022-10-16T10:20:24;2.85;;;1.10;;
37763;SDS011;23602;51.084;7.090;2022-10-16T10:22:50;2.53;;;0.82;;
37763;SDS011;23602;51.084;7.090;2022-10-16T10:30:52;2.17;;;1.02;;
37763;SDS011;23602;51.084;7.090;2022-10-16T10:33:48;6.30;;;0.80;;
37763;SDS011;23602;51.084;7.090;2022-10-16T10:36:28;4.85;;;1.02;;
37763;SDS011;23602;51.084;7.090;2022-10-16T10:39:15;3.53;;;0.63;;
37763;SDS011;23602;51.084;7.090;2022-10-16T10:55:50;3.53;;;1.00;;
37763;SDS011;23602;51.084;7.090;2022-10-16T11:01:13;2.63;;;1.00;;
37763;SDS011;23602;51.084;7.090;2022-10-16T11:06:18;6.35;;;0.70;;
37763;SDS011;23602;51.084;7.090;2022-10-16T11:08:50;6.28;;;0.80;;
37763;SDS011;23602;51.084;7.090;2022-10-16T11:11:24;7.30;;;0.75;;
37763;SDS011;23602;51.084;7.090;2022-10-16T11:13:58;6.38;;;0.75;;
37763;SDS011;23602;51.084;7.090;2022-10-16T11:16:42;5.05;;;1.17;;
37763;SDS011;23602;51.084;7.090;2022-10-16T11:24:53;3.88;;;0.73;;
37763;SDS011;23602;51.084;7.090;2022-10-16T11:27:29;4.15;;;1.20;;
37763;SDS011;23602;51.084;7.090;2022-10-16T11:30:04;4.93;;;1.05;;
37763;SDS011;23602;51.084;7.090;2022-10-16T11:35:53;3.47;;;0.47;;
37763;SDS011;23602;51.084;7.090;2022-10-16T11:38:42;2.50;;;0.63;;
37763;SDS011;23602;51.084;7.090;2022-10-16T11:41:29;4.22;;;0.60;;
37763;SDS011;23602;51.084;7.090;2022-10-16T11:49:50;11.40;;;0.82;;
37763;SDS011;23602;51.084;7.090;2022-10-16T11:52:36;6.75;;;0.98;;
37763;SDS011;23602;51.084;7.090;2022-10-16T11:55:19;8.43;;;0.82;;
37763;SDS011;23602;51.084;7.090;2022-10-16T11:57:52;17.80;;;1.92;;
37763;SDS011;23602;51.084;7.090;2022-10-16T12:08:59;6.80;;;1.33;;
37763;SDS011;23602;51.084;7.090;2022-10-16T12:13:52;3.72;;;1.40;;
37763;SDS011;23602;51.084;7.090;2022-10-16T12:19:19;4.53;;;0.95;;
37763;SDS011;23602;51.084;7.090;2022-10-16T12:21:46;7.32;;;0.90;;
37763;SDS011;23602;51.084;7.090;2022-10-16T12:27:31;5.38;;;0.75;;
37763;SDS011;23602;51.084;7.090;2022-10-16T12:30:02;6.45;;;1.10;;
37763;SDS011;23602;51.084;7.090;2022-10-16T12:35:16;8.45;;;1.23;;
37763;SDS011;23602;51.084;7.090;2022-10-16T12:37:45;3.50;;;0.50;;
37763;SDS011;23602;51.084;7.090;2022-10-16T12:40:13;0.85;;;0.70;;
37763;SDS011;23602;51.084;7.090;2022-10-16T12:42:49;6.35;;;0.70;;
37763;SDS011;23602;51.084;7.090;2022-10-16T12:45:48;4.63;;;0.80;;
37763;SDS011;23602;51.084;7.090;2022-10-16T12:48:18;3.03;;;0.80;;
37763;SDS011;23602;51.084;7.090;2022-10-16T12:50:45;3.60;;;0.55;;
37763;SDS011;23602;51.084;7.090;2022-10-16T12:53:21;10.77;;;1.15;;
37763;SDS011;23602;51.084;7.090;2022-10-16T12:58:51;5.05;;;1.33;;
37763;SDS011;23602;51.084;7.090;2022-10-16T13:06:57;3.00;;;0.70;;
37763;SDS011;23602;51.084;7.090;2022-10-16T13:09:38;6.78;;;1.13;;
37763;SDS011;23602;51.084;7.090;2022-10-16T13:12:36;6.20;;;0.80;;
37763;SDS011;23602;51.084;7.090;2022-10-16T13:23:25;6.43;;;0.82;;
37763;SDS011;23602;51.084;7.090;2022-10-16T13:29:00;16.15;;;1.33;;
37763;SDS011;23602;51.084;7.090;2022-10-16T13:31:26;8.80;;;1.77;;
37763;SDS011;23602;51.084;7.090;2022-10-16T13:33:54;5.82;;;0.70;;
37763;SDS011;23602;51.084;7.090;2022-10-16T13:36:24;2.00;;;0.68;;
37763;SDS011;23602;51.084;7.090;2022-10-16T13:39:10;4.57;;;0.73;;
37763;SDS011;23602;51.084;7.090;2022-10-16T13:41:36;2.78;;;0.50;;
37763;SDS011;23602;51.084;7.090;2022-10-16T13:44:02;4.43;;;0.98;;
37763;SDS011;23602;51.084;7.090;2022-10-16T13:46:28;1.60;;;0.57;;
37763;SDS011;23602;51.084;7.090;2022-10-16T13:49:03;7.68;;;0.90;;
37763;SDS011;23602;51.084;7.090;2022-10-16T13:51:31;3.67;;;1.13;;
37763;SDS011;23602;51.084;7.090;2022-10-16T13:53:58;2.35;;;0.60;;
37763;SDS011;23602;51.084;7.090;2022-10-16T13:56:28;7.93;;;0.90;;
37763;SDS011;23602;51.084;7.090;2022-10-16T13:59:03;9.60;;;1.13;;
37763;SDS011;23602;51.084;7.090;2022-10-16T14:01:40;9.13;;;1.98;;
37763;SDS011;23602;51.084;7.090;2022-10-16T14:04:08;8.60;;;1.25;;
37763;SDS011;23602;51.084;7.090;2022-10-16T14:06:35;5.20;;;0.85;;
37763;SDS011;23602;51.084;7.090;2022-10-16T14:09:06;3.08;;;0.95;;
37763;SDS011;23602;51.084;7.090;2022-10-16T14:11:46;12.73;;;2.03;;
37763;SDS011;23602;51.084;7.090;2022-10-16T14:14:16;7.72;;;0.95;;
37763;SDS011;23602;51.084;7.090;2022-10-16T14:16:42;12.32;;;1.75;;
37763;SDS011;23602;51.084;7.090;2022-10-16T14:22:00;6.25;;;0.80;;
37763;SDS011;23602;51.084;7.090;2022-10-16T14:26:57;12.73;;;1.35;;
37763;SDS011;23602;51.084;7.090;2022-10-16T14:29:27;11.38;;;1.20;;
37763;SDS011;23602;51.084;7.090;2022-10-16T14:31:55;16.90;;;1.60;;
37763;SDS011;23602;51.084;7.090;2022-10-16T14:34:41;13.18;;;0.93;;
37763;SDS011;23602;51.084;7.090;2022-10-16T14:37:15;5.85;;;0.80;;
37763;SDS011;23602;51.084;7.090;2022-10-16T14:39:52;5.75;;;1.00;;
37763;SDS011;23602;51.084;7.090;2022-10-16T14:42:19;5.85;;;0.98;;
37763;SDS011;23602;51.084;7.090;2022-10-16T14:44:49;5.25;;;0.80;;
37763;SDS011;23602;51.084;7.090;2022-10-16T14:47:18;6.43;;;1.30;;
37763;SDS011;23602;51.084;7.090;2022-10-16T14:49:47;4.72;;;0.77;;
37763;SDS011;23602;51.084;7.090;2022-10-16T14:52:13;5.20;;;1.15;;
37763;SDS011;23602;51.084;7.090;2022-10-16T14:54:39;16.48;;;1.85;;
37763;SDS011;23602;51.084;7.090;2022-10-16T14:57:18;2.60;;;0.90;;
37763;SDS011;23602;51.084;7.090;2022-10-16T14:59:46;5.82;;;1.58;;
37763;SDS011;23602;51.084;7.090;2022-10-16T15:02:32;7.47;;;1.02;;
37763;SDS011;23602;51.084;7.090;2022-10-16T15:05:02;4.57;;;1.00;;
37763;SDS011;23602;51.084;7.090;2022-10-16T15:07:51;11.88;;;0.90;;
37763;SDS011;23602;51.084;7.090;2022-10-16T15:10:21;5.28;;;1.00;;
37763;SDS011;23602;51.084;7.090;2022-10-16T15:12:48;15.48;;;1.73;;
37763;SDS011;23602;51.084;7.090;2022-10-16T15:15:21;8.55;;;0.88;;
37763;SDS011;23602;51.084;7.090;2022-10-16T15:17:53;3.00;;;0.93;;
37763;SDS011;23602;51.084;7.090;2022-10-16T15:20:25;2.22;;;0.82;;
37763;SDS011;23602;51.084;7.090;2022-10-16T15:23:13;5.88;;;0.93;;
37763;SDS011;23602;51.084;7.090;2022-10-16T15:25:42;6.68;;;1.05;;
37763;SDS011;23602;51.084;7.090;2022-10-16T15:28:16;5.75;;;1.15;;
37763;SDS011;23602;51.084;7.090;2022-10-16T15:30:42;4.65;;;1.73;;
37763;SDS011;23602;51.084;7.090;2022-10-16T15:33:17;10.85;;;1.30;;
37763;SDS011;23602;51.084;7.090;2022-10-16T15:35:46;7.82;;;1.15;;
37763;SDS011;23602;51.084;7.090;2022-10-16T15:38:13;2.72;;;0.90;;
37763;SDS011;23602;51.084;7.090;2022-10-16T15:40:43;2.03;;;0.93;;
37763;SDS011;23602;51.084;7.090;2022-10-16T15:43:08;3.92;;;0.73;;
37763;SDS011;23602;51.084;7.090;2022-10-16T15:45:38;6.00;;;1.15;;
37763;SDS011;23602;51.084;7.090;2022-10-16T15:48:04;8.57;;;1.00;;
37763;SDS011;23602;51.084;7.090;2022-10-16T15:50:30;7.43;;;1.45;;
37763;SDS011;23602;51.084;7.090;2022-10-16T15:52:59;6.63;;;1.43;;
37763;SDS011;23602;51.084;7.090;2022-10-16T15:55:25;2.65;;;0.82;;
37763;SDS011;23602;51.084;7.090;2022-10-16T15:57:50;2.05;;;0.90;;
37763;SDS011;23602;51.084;7.090;2022-10-16T16:00:17;12.30;;;1.05;;
37763;SDS011;23602;51.084;7.090;2022-10-16T16:02:51;8.68;;;1.63;;
37763;SDS011;23602;51.084;7.090;2022-10-16T16:05:18;6.32;;;1.13;;
37763;SDS011;23602;51.084;7.090;2022-10-16T16:07:44;7.97;;;1.07;;
37763;SDS011;23602;51.084;7.090;2022-10-16T16:10:13;11.68;;;1.30;;
37763;SDS011;23602;51.084;7.090;2022-10-16T16:12:39;5.68;;;1.10;;
37763;SDS011;23602;51.084;7.090;2022-10-16T16:15:05;9.18;;;1.30;;
37763;SDS011;23602;51.084;7.090;2022-10-16T16:17:32;2.67;;;1.20;;
37763;SDS011;23602;51.084;7.090;2022-10-16T16:19:59;4.00;;;0.93;;
37763;SDS011;23602;51.084;7.090;2022-10-16T16:22:25;3.10;;;0.95;;
37763;SDS011;23602;51.084;7.090;2022-10-16T16:24:55;9.02;;;1.30;;
37763;SDS011;23602;51.084;7.090;2022-10-16T16:27:20;5.93;;;1.23;;
37763;SDS011;23602;51.084;7.090;2022-10-16T16:29:46;6.20;;;0.88;;
37763;SDS011;23602;51.084;7.090;2022-10-16T16:32:12;4.35;;;1.35;;
37763;SDS011;23602;51.084;7.090;2022-10-16T16:34:38;7.20;;;1.13;;
37763;SDS011;23602;51.084;7.090;2022-10-16T16:37:07;9.57;;;1.40;;
37763;SDS011;23602;51.084;7.090;2022-10-16T16:39:33;4.63;;;1.30;;
37763;SDS011;23602;51.084;7.090;2022-10-16T16:42:04;3.83;;;1.30;;
37763;SDS011;23602;51.084;7.090;2022-10-16T16:44:41;5.22;;;1.63;;
37763;SDS011;23602;51.084;7.090;2022-10-16T16:47:07;4.28;;;1.20;;
37763;SDS011;23602;51.084;7.090;2022-10-16T16:49:37;10.40;;;1.00;;
37763;SDS011;23602;51.084;7.090;2022-10-16T16:52:05;4.60;;;1.10;;
37763;SDS011;23602;51.084;7.090;2022-10-16T16:54:30;6.20;;;1.70;;
37763;SDS011;23602;51.084;7.090;2022-10-16T16:56:59;4.95;;;1.15;;
37763;SDS011;23602;51.084;7.090;2022-10-16T16:59:25;4.78;;;1.40;;
37763;SDS011;23602;51.084;7.090;2022-10-16T17:01:51;17.38;;;1.67;;
37763;SDS011;23602;51.084;7.090;2022-10-16T17:04:17;14.15;;;1.88;;
37763;SDS011;23602;51.084;7.090;2022-10-16T17:06:48;7.82;;;1.58;;